Time;durP1;ratioP1;P1;durP2;ratioP2;P2;SDS_P1;SDS_P2;PMS_P1;PMS_P2;Temp;Humidity;BMP_temperature;BMP_pressure;BME280_temperature;BME280_humidity;BME280_pressure;Samples;Min_cycle;Max_cycle;Signal;HPM_P1;HPM_P2
2022/09/27 00:00:02;;;;;;;6.72;2.90;;;;;;;10.69;93.83;99639.97;4975670;28;20055;-85
2022/09/27 00:02:27;;;;;;;7.90;2.60;;;;;;;10.69;94.24;99635.56;4975588;28;20039;-85
2022/09/27 00:04:52;;;;;;;8.80;2.53;;;;;;;10.70;94.36;99639.06;4975283;28;20089;-85
2022/09/27 00:07:18;;;;;;;6.22;2.20;;;;;;;10.74;94.36;99635.53;4976762;28;20054;-86
2022/09/27 00:09:43;;;;;;;10.27;2.72;;;;;;;10.68;94.30;99623.25;4975604;28;20034;-85
2022/09/27 00:12:09;;;;;;;5.82;2.30;;;;;;;10.69;94.31;99632.03;4975564;28;20414;-85
2022/09/27 00:14:34;;;;;;;6.45;2.45;;;;;;;10.70;94.13;99634.66;4975450;28;20038;-85
2022/09/27 00:16:59;;;;;;;4.10;2.40;;;;;;;10.75;93.99;99648.72;4975011;28;20042;-85
2022/09/27 00:19:25;;;;;;;4.68;2.20;;;;;;;10.72;93.64;99643.47;4976591;28;20166;-85
2022/09/27 00:21:51;;;;;;;6.75;2.30;;;;;;;10.72;93.91;99646.13;4974959;28;20031;-85
2022/09/27 00:24:19;;;;;;;7.93;2.00;;;;;;;10.72;93.74;99650.53;4975636;28;20145;-85
2022/09/27 00:26:45;;;;;;;8.20;2.00;;;;;;;10.69;93.69;99656.69;4975905;28;20030;-86
2022/09/27 00:29:12;;;;;;;6.95;2.10;;;;;;;10.69;93.76;99663.75;4991162;28;20046;-86
2022/09/27 00:31:38;;;;;;;3.08;1.70;;;;;;;10.71;94.05;99673.44;5015239;28;20030;-85
2022/09/27 00:34:04;;;;;;;4.57;1.80;;;;;;;10.74;93.77;99673.38;4997670;28;20084;-85
2022/09/27 00:36:31;;;;;;;4.40;1.90;;;;;;;10.73;93.13;99670.75;5015498;28;20031;-85
2022/09/27 00:39:00;;;;;;;4.65;1.55;;;;;;;10.74;93.43;99660.16;5015203;28;20026;-85
2022/09/27 00:41:28;;;;;;;6.55;1.70;;;;;;;10.71;92.87;99665.50;5014667;28;20479;-85
2022/09/27 00:43:59;;;;;;;5.43;1.67;;;;;;;10.67;93.28;99647.06;5014925;28;20021;-85
2022/09/27 00:46:34;;;;;;;4.10;1.70;;;;;;;10.68;93.28;99644.38;4997241;28;20026;-85
2022/09/27 00:49:14;;;;;;;5.22;1.70;;;;;;;10.64;92.61;99650.59;5015069;28;20101;-85
2022/09/27 00:51:41;;;;;;;3.40;1.52;;;;;;;10.62;92.56;99660.31;5014705;28;20071;-85
2022/09/27 00:54:10;;;;;;;3.60;1.30;;;;;;;10.60;92.19;99659.44;5014672;28;20036;-85
2022/09/27 00:56:36;;;;;;;4.10;1.63;;;;;;;10.64;91.77;99663.78;5014908;28;20045;-85
2022/09/27 00:59:16;;;;;;;5.63;1.90;;;;;;;10.64;91.91;99670.84;4980760;28;20034;-85
2022/09/27 01:01:42;;;;;;;3.50;1.23;;;;;;;10.63;92.23;99664.69;4997161;28;20417;-85
2022/09/27 01:04:09;;;;;;;2.72;1.10;;;;;;;10.62;91.60;99667.31;4997033;28;20052;-85
2022/09/27 01:06:35;;;;;;;4.65;1.55;;;;;;;10.62;91.70;99669.97;5014523;28;20075;-85
2022/09/27 01:09:01;;;;;;;3.33;1.50;;;;;;;10.65;92.58;99677.88;4996930;28;20034;-85
2022/09/27 01:11:35;;;;;;;4.20;1.48;;;;;;;10.58;92.56;99666.50;5014719;28;20148;-85
2022/09/27 01:14:25;;;;;;;4.82;1.63;;;;;;;10.68;91.91;99686.66;5014147;28;20041;-85
2022/09/27 01:17:23;;;;;;;5.22;1.40;;;;;;;10.68;92.56;99676.09;4996866;28;20032;-85
2022/09/27 01:19:58;;;;;;;7.20;1.63;;;;;;;10.69;92.02;99672.56;5009342;28;20034;-85
2022/09/27 01:22:28;;;;;;;4.43;1.30;;;;;;;10.72;92.48;99672.53;4996853;28;20030;-85
2022/09/27 01:25:04;;;;;;;5.53;1.73;;;;;;;10.70;91.78;99665.50;5014549;28;20030;-85
2022/09/27 01:27:41;;;;;;;5.43;1.60;;;;;;;10.67;92.38;99657.63;5014294;28;20021;-85
2022/09/27 01:30:28;;;;;;;6.10;1.75;;;;;;;10.73;92.36;99665.47;4996533;28;20458;-85
2022/09/27 01:33:15;;;;;;;3.75;1.55;;;;;;;10.74;92.39;99665.44;5014272;28;20424;-85
2022/09/27 01:36:20;;;;;;;3.40;1.50;;;;;;;10.75;92.06;99675.16;4996595;28;20026;-85
2022/09/27 01:39:04;;;;;;;8.52;1.80;;;;;;;10.67;91.85;99677.00;5011048;28;20038;-85
2022/09/27 01:41:35;;;;;;;6.35;1.92;;;;;;;10.62;91.93;99678.78;5014273;28;20160;-85
2022/09/27 01:44:13;;;;;;;5.00;1.90;;;;;;;10.61;91.87;99678.78;4996298;28;20034;-85
2022/09/27 01:46:47;;;;;;;3.42;1.38;;;;;;;10.59;91.71;99689.38;5014342;28;20057;-85
2022/09/27 01:49:16;;;;;;;5.28;1.73;;;;;;;10.52;91.77;99688.53;5014532;28;20025;-85
2022/09/27 01:51:53;;;;;;;2.95;1.52;;;;;;;10.48;91.50;99681.53;4996372;28;20025;-85
2022/09/27 01:54:26;;;;;;;5.43;1.52;;;;;;;10.47;91.43;99694.75;5014237;28;20026;-85
2022/09/27 01:56:56;;;;;;;5.32;1.80;;;;;;;10.47;91.16;99686.81;4996875;28;20125;-85
2022/09/27 01:59:27;;;;;;;5.03;1.67;;;;;;;10.48;91.14;99705.28;4996719;28;20384;-85
2022/09/27 02:01:56;;;;;;;6.90;1.50;;;;;;;10.43;91.00;99701.81;4996460;28;20416;-85
2022/09/27 02:04:25;;;;;;;5.38;1.60;;;;;;;10.40;91.30;99698.31;5013851;28;20029;-85
2022/09/27 02:06:58;;;;;;;4.70;1.67;;;;;;;10.38;90.56;99700.09;4997040;28;20394;-85
2022/09/27 02:09:50;;;;;;;5.28;1.35;;;;;;;10.34;91.21;99693.97;5013861;28;20069;-85
2022/09/27 02:12:22;;;;;;;4.32;1.35;;;;;;;10.25;90.71;99686.97;4996727;28;20022;-85
2022/09/27 02:15:00;;;;;;;;;;;;;;;10.34;90.90;99693.09;5014741;28;20022;-86
2022/09/27 02:17:57;;;;;;;6.50;1.45;;;;;;;10.25;90.88;99697.53;4996845;28;19905;-85
2022/09/27 02:20:37;;;;;;;2.55;1.27;;;;;;;10.22;90.73;99691.38;5012315;28;20462;-85
2022/09/27 02:23:13;;;;;;;4.13;1.52;;;;;;;10.15;90.21;99690.53;4996363;28;20025;-85
2022/09/27 02:25:42;;;;;;;4.30;1.35;;;;;;;10.08;90.24;99691.44;5014257;28;20025;-85
2022/09/27 02:28:22;;;;;;;2.92;1.20;;;;;;;10.08;90.28;99685.31;5013367;28;20134;-85
2022/09/27 02:30:47;;;;;;;3.95;1.35;;;;;;;10.09;89.92;99698.47;4996875;28;20350;-85
2022/09/27 02:33:13;;;;;;;6.15;1.30;;;;;;;10.04;89.47;99698.50;4995949;28;20128;-85
2022/09/27 02:35:38;;;;;;;5.32;1.45;;;;;;;10.02;89.79;99688.84;4996407;28;20116;-85
2022/09/27 02:38:06;;;;;;;4.22;1.25;;;;;;;10.02;89.86;99695.00;4980228;28;20450;-85
2022/09/27 02:40:34;;;;;;;5.72;1.67;;;;;;;9.98;89.96;99693.28;4996133;28;20112;-85
2022/09/27 02:43:02;;;;;;;4.07;1.33;;;;;;;10.01;89.80;99709.06;5012481;28;20431;-85
2022/09/27 02:45:41;;;;;;;3.90;1.17;;;;;;;10.02;89.70;99720.50;5013493;28;20029;-85
2022/09/27 02:48:30;;;;;;;6.10;1.30;;;;;;;9.97;89.48;99715.25;4996642;28;20351;-85
2022/09/27 02:51:04;;;;;;;6.30;1.40;;;;;;;9.92;89.55;99721.44;5015037;28;20026;-85
2022/09/27 02:53:51;;;;;;;2.67;1.30;;;;;;;9.89;89.47;99713.53;5017180;28;20022;-85
2022/09/27 02:56:46;;;;;;;5.38;1.35;;;;;;;9.78;89.35;99711.84;5016983;28;20025;-85
2022/09/27 02:59:40;;;;;;;4.00;1.50;;;;;;;9.77;89.69;99711.84;5016883;28;20358;-85
2022/09/27 03:02:18;;;;;;;4.63;1.48;;;;;;;9.74;89.86;99706.56;5016774;28;20041;-85
2022/09/27 03:04:50;;;;;;;4.63;1.55;;;;;;;9.72;89.49;99690.78;5017337;28;20036;-85
2022/09/27 03:07:16;;;;;;;;;;;;;;;9.85;89.17;99707.41;5000551;28;20398;-85
2022/09/27 03:09:48;;;;;;;6.18;1.80;;;;;;;9.74;89.06;99704.81;4983263;28;19910;-85
2022/09/27 03:12:19;;;;;;;6.80;1.50;;;;;;;9.70;89.08;99703.06;5016640;28;20025;-85
2022/09/27 03:14:45;;;;;;;4.25;1.55;;;;;;;9.70;89.11;99699.56;4998901;28;20018;-85
2022/09/27 03:17:11;;;;;;;7.10;1.80;;;;;;;9.67;89.26;99707.47;4998913;28;20068;-85
2022/09/27 03:19:36;;;;;;;6.00;2.03;;;;;;;9.65;89.27;99706.63;5016590;28;20053;-85
2022/09/27 03:22:02;;;;;;;3.67;1.50;;;;;;;9.57;89.40;99695.22;5016586;28;20030;-85
2022/09/27 03:24:27;;;;;;;4.88;1.35;;;;;;;9.52;89.71;99704.03;5016880;28;20080;-85
2022/09/27 03:26:52;;;;;;;5.10;1.60;;;;;;;9.48;90.16;99694.38;4982677;28;20065;-85
2022/09/27 03:29:18;;;;;;;4.95;1.58;;;;;;;9.48;90.38;99702.28;4998820;28;20042;-85
2022/09/27 03:31:43;;;;;;;5.63;1.52;;;;;;;9.45;90.07;99709.31;5016409;28;20418;-85
2022/09/27 03:34:08;;;;;;;6.13;1.52;;;;;;;9.45;90.86;99704.03;5015890;28;20032;-85
2022/09/27 03:36:34;;;;;;;5.90;1.70;;;;;;;9.46;91.08;99711.06;4998756;28;20033;-85
2022/09/27 03:38:59;;;;;;;4.20;1.52;;;;;;;9.40;91.25;99698.78;4998365;28;20370;-85
2022/09/27 03:41:24;;;;;;;2.75;1.20;;;;;;;9.48;90.67;99698.75;4982179;28;20058;-85
2022/09/27 03:43:50;;;;;;;3.92;1.65;;;;;;;9.48;91.17;99699.63;5016066;28;20037;-85
2022/09/27 03:46:15;;;;;;;7.80;1.67;;;;;;;9.52;91.23;99716.34;4998706;28;20525;-85
2022/09/27 03:48:41;;;;;;;5.35;1.60;;;;;;;9.51;91.08;99725.13;5016109;28;20026;-85
2022/09/27 03:51:07;;;;;;;5.53;1.70;;;;;;;9.51;91.25;99733.91;4998553;28;20033;-85
2022/09/27 03:53:33;;;;;;;5.13;1.60;;;;;;;9.49;91.56;99735.66;5015880;28;20053;-85
2022/09/27 03:55:58;;;;;;;5.03;1.60;;;;;;;9.54;91.60;99744.44;4999543;28;20107;-85
2022/09/27 03:58:23;;;;;;;4.55;2.00;;;;;;;9.51;92.00;99762.94;4982934;28;20098;-85
2022/09/27 04:00:49;;;;;;;9.05;1.80;;;;;;;9.49;92.13;99758.53;4999066;28;20371;-86
2022/09/27 04:03:15;;;;;;;8.05;1.90;;;;;;;9.53;92.42;99757.63;4997739;28;20029;-85
2022/09/27 04:05:40;;;;;;;3.83;1.55;;;;;;;9.57;92.09;99759.38;4998344;28;20030;-85
2022/09/27 04:08:06;;;;;;;11.20;1.80;;;;;;;9.60;92.70;99764.66;5016033;28;20032;-85
2022/09/27 04:10:32;;;;;;;5.93;1.60;;;;;;;9.64;92.99;99773.44;4982066;28;20025;-85
2022/09/27 04:12:57;;;;;;;9.00;1.80;;;;;;;9.64;92.69;99765.53;4998163;28;20147;-85
2022/09/27 04:15:23;;;;;;;5.93;1.60;;;;;;;9.63;91.79;99761.13;4998133;28;20092;-85
2022/09/27 04:17:48;;;;;;;7.10;1.48;;;;;;;9.67;91.97;99757.59;5015406;28;20407;-85
2022/09/27 04:20:14;;;;;;;7.07;1.60;;;;;;;9.70;91.76;99760.22;5015222;28;20076;-85
2022/09/27 04:22:40;;;;;;;5.95;1.67;;;;;;;9.70;91.97;99742.63;5015210;28;20029;-86
2022/09/27 04:25:08;;;;;;;5.65;1.50;;;;;;;9.72;91.24;99742.63;5015184;28;20021;-85
2022/09/27 04:27:33;;;;;;;6.30;1.50;;;;;;;9.73;91.30;99731.22;5014899;28;20025;-85
2022/09/27 04:29:59;;;;;;;5.68;1.50;;;;;;;9.69;90.80;99717.16;4997298;28;20505;-85
2022/09/27 04:32:24;;;;;;;6.07;1.30;;;;;;;9.60;91.13;99718.94;4998092;28;20041;-85
2022/09/27 04:37:35;;;;;;;3.45;1.38;;;;;;;9.53;91.34;99713.69;5015697;28;20525;-85
2022/09/27 04:40:01;;;;;;;3.92;1.40;;;;;;;9.60;91.24;99713.69;5014854;28;20108;-86
2022/09/27 04:42:26;;;;;;;2.15;1.00;;;;;;;9.64;90.83;99724.22;5014627;28;20026;-85
2022/09/27 04:44:51;;;;;;;4.57;1.13;;;;;;;9.60;90.60;99724.22;5014821;28;20057;-86
2022/09/27 04:47:19;;;;;;;6.18;1.33;;;;;;;9.52;90.96;99713.69;4996851;28;20037;-86
2022/09/27 04:49:45;;;;;;;5.40;1.20;;;;;;;9.46;90.95;99716.34;4997617;28;20025;-86
2022/09/27 04:52:11;;;;;;;3.92;1.50;;;;;;;9.40;91.41;99725.16;4997275;28;20476;-86
2022/09/27 04:54:37;;;;;;;4.32;1.70;;;;;;;9.38;91.45;99731.28;4997398;28;20153;-85
2022/09/27 04:57:02;;;;;;;3.53;1.30;;;;;;;9.32;91.60;99726.91;4965392;28;20030;-86
2022/09/27 04:59:28;;;;;;;3.90;1.20;;;;;;;9.39;91.27;99748.91;5013311;28;20033;-86
2022/09/27 05:01:53;;;;;;;3.60;1.10;;;;;;;9.37;91.72;99750.63;4997662;28;20033;-86
2022/09/27 05:04:19;;;;;;;4.63;1.35;;;;;;;9.37;91.52;99754.16;5014871;28;20032;-85
2022/09/27 05:06:44;;;;;;;1.73;1.05;;;;;;;9.39;91.48;99752.41;4981440;28;20033;-85
2022/09/27 05:09:09;;;;;;;6.45;1.20;;;;;;;9.40;90.99;99759.44;5014788;28;20057;-86
2022/09/27 05:11:36;;;;;;;2.40;0.98;;;;;;;9.36;91.25;99755.03;4980852;28;20033;-86
2022/09/27 05:14:03;;;;;;;3.15;1.23;;;;;;;9.42;91.21;99781.41;4996996;28;20069;-86
2022/09/27 05:16:28;;;;;;;3.53;1.25;;;;;;;9.37;91.58;99771.72;4996987;28;20041;-85
2022/09/27 05:18:54;;;;;;;2.80;1.20;;;;;;;9.39;91.53;99783.16;4996820;28;20034;-85
2022/09/27 05:21:19;;;;;;;2.58;1.33;;;;;;;9.38;91.00;99779.66;4980552;28;20421;-85
2022/09/27 05:23:44;;;;;;;3.75;1.20;;;;;;;9.38;90.53;99773.47;5014281;28;20028;-86
2022/09/27 05:26:10;;;;;;;2.17;1.10;;;;;;;9.34;90.76;99787.56;4997197;28;20068;-85
2022/09/27 05:28:36;;;;;;;3.83;1.20;;;;;;;9.30;91.32;99784.06;5014350;28;20074;-85
2022/09/27 05:31:01;;;;;;;5.32;1.20;;;;;;;9.35;91.45;99778.78;4996588;28;20026;-84
2022/09/27 05:33:27;;;;;;;3.40;1.33;;;;;;;9.34;91.16;99782.31;5014067;28;20080;-86
2022/09/27 05:35:56;;;;;;;6.32;1.52;;;;;;;9.30;91.42;99773.50;5014095;28;20025;-85
2022/09/27 05:38:24;;;;;;;2.47;0.90;;;;;;;9.31;91.41;99771.75;4996312;28;20441;-86
2022/09/27 05:40:50;;;;;;;2.40;1.20;;;;;;;9.28;91.50;99767.34;5014053;28;20351;-86
2022/09/27 05:43:16;;;;;;;3.28;1.30;;;;;;;9.31;91.92;99764.72;4996571;28;20040;-86
2022/09/27 05:45:43;;;;;;;5.63;1.33;;;;;;;9.36;91.81;99778.75;5014383;28;20351;-86
2022/09/27 05:48:09;;;;;;;3.00;1.08;;;;;;;9.39;91.89;99770.84;4996826;28;20157;-86
2022/09/27 05:50:35;;;;;;;3.97;1.20;;;;;;;9.37;91.52;99764.69;5013879;28;20022;-86
2022/09/27 05:53:00;;;;;;;4.80;1.20;;;;;;;9.31;91.50;99759.44;5014001;28;20045;-86
2022/09/27 05:55:26;;;;;;;3.65;1.30;;;;;;;9.36;91.49;99770.84;5014013;28;20030;-86
2022/09/27 05:57:56;;;;;;;2.63;1.30;;;;;;;9.32;91.91;99762.97;4997205;28;20037;-86
2022/09/27 06:00:23;;;;;;;5.05;1.50;;;;;;;9.31;92.31;99771.75;5013485;28;20030;-86
2022/09/27 06:02:53;;;;;;;2.55;1.27;;;;;;;9.24;92.05;99768.22;5013897;28;20025;-86
2022/09/27 06:05:19;;;;;;;4.40;1.30;;;;;;;9.19;92.33;99755.06;4980812;28;20038;-86
2022/09/27 06:07:45;;;;;;;3.67;1.38;;;;;;;9.16;92.57;99759.44;5012626;28;20022;-86
2022/09/27 06:10:10;;;;;;;2.63;1.10;;;;;;;9.21;92.63;99758.59;4980678;28;20358;-86
2022/09/27 06:12:36;;;;;;;2.20;1.20;;;;;;;9.17;92.43;99759.47;5013545;28;20355;-86
2022/09/27 06:15:02;;;;;;;3.10;1.10;;;;;;;9.14;92.60;99756.81;4979830;28;20065;-86
2022/09/27 06:17:27;;;;;;;2.85;1.20;;;;;;;9.17;92.47;99766.50;5013906;28;20033;-86
2022/09/27 06:19:52;;;;;;;2.67;1.15;;;;;;;9.18;92.77;99769.13;4996348;28;20030;-86
2022/09/27 06:22:17;;;;;;;4.95;1.50;;;;;;;9.14;92.43;99767.38;4996427;28;20032;-86
2022/09/27 06:24:43;;;;;;;3.20;1.50;;;;;;;9.15;92.66;99768.25;4996433;28;20064;-87
2022/09/27 06:27:08;;;;;;;1.27;1.00;;;;;;;9.08;92.07;99767.38;4999079;28;20072;-87
2022/09/27 06:29:34;;;;;;;4.45;1.42;;;;;;;9.13;92.34;99783.19;5018048;28;20046;-87
2022/09/27 06:32:00;;;;;;;2.63;1.20;;;;;;;9.07;92.30;99773.50;5017835;28;20026;-87
2022/09/27 06:34:26;;;;;;;2.13;1.08;;;;;;;9.09;91.97;99778.81;4984041;28;20050;-87
2022/09/27 06:36:51;;;;;;;3.08;1.30;;;;;;;9.07;92.25;99785.81;5016899;28;20454;-87
2022/09/27 06:39:17;;;;;;;3.17;1.67;;;;;;;9.11;91.96;99784.94;5017720;28;20394;-86
2022/09/27 06:41:43;;;;;;;2.22;1.33;;;;;;;9.10;92.43;99791.97;4999966;28;20112;-87
2022/09/27 06:44:08;;;;;;;3.10;1.67;;;;;;;9.11;91.95;99782.31;4999646;28;20030;-87
2022/09/27 06:46:33;;;;;;;1.83;1.40;;;;;;;9.08;92.74;99775.28;5017565;28;20030;-86
2022/09/27 06:48:59;;;;;;;3.42;1.45;;;;;;;9.06;92.77;99779.66;5017273;28;20368;-87
2022/09/27 06:51:24;;;;;;;2.97;1.50;;;;;;;9.03;92.64;99770.00;5017014;28;20038;-87
2022/09/27 06:53:50;;;;;;;2.22;1.45;;;;;;;9.03;93.06;99772.63;4999622;28;20384;-86
2022/09/27 06:56:15;;;;;;;2.33;1.90;;;;;;;8.98;93.07;99771.75;5016706;28;20441;-86
2022/09/27 07:01:28;;;;;;;3.63;1.92;;;;;;;8.99;93.57;99780.53;5016653;28;20068;-86
2022/09/27 07:03:53;;;;;;;1.85;1.63;;;;;;;8.93;93.72;99781.44;5016976;28;20037;-86
2022/09/27 07:06:21;;;;;;;3.03;1.73;;;;;;;8.96;93.93;99786.72;5016678;28;20055;-86
2022/09/27 07:08:51;;;;;;;3.80;2.08;;;;;;;8.94;94.32;99785.81;5016589;28;20033;-86
2022/09/27 07:11:17;;;;;;;3.55;1.90;;;;;;;8.95;94.29;99777.06;4999036;28;20030;-85
2022/09/27 07:13:43;;;;;;;3.92;2.20;;;;;;;8.97;94.25;99771.78;5016270;28;20030;-86
2022/09/27 07:16:12;;;;;;;3.65;2.10;;;;;;;9.02;94.45;99780.56;5016446;28;20079;-85
2022/09/27 07:18:39;;;;;;;5.65;2.20;;;;;;;9.07;94.77;99785.81;4999772;28;20389;-85
2022/09/27 07:21:05;;;;;;;4.00;2.15;;;;;;;9.12;94.93;99794.59;4998725;28;20025;-86
2022/09/27 07:23:31;;;;;;;4.00;2.10;;;;;;;9.15;94.60;99791.97;5017054;28;20022;-86
2022/09/27 07:26:03;;;;;;;5.15;2.30;;;;;;;9.20;94.87;99798.09;4982663;28;20202;-85
2022/09/27 07:28:28;;;;;;;3.20;2.25;;;;;;;9.19;93.98;99797.22;5016111;28;20042;-86
2022/09/27 07:30:55;;;;;;;3.78;2.35;;;;;;;9.23;94.46;99796.34;5016762;28;20072;-86
2022/09/27 07:33:20;;;;;;;6.13;2.28;;;;;;;9.24;94.27;99798.09;5016182;28;20105;-85
2022/09/27 07:35:45;;;;;;;4.30;2.40;;;;;;;9.26;94.78;99811.31;5016684;28;20109;-86
2022/09/27 07:38:15;;;;;;;3.30;2.10;;;;;;;9.22;94.22;99802.50;4998812;28;20064;-86
2022/09/27 07:40:41;;;;;;;5.95;2.30;;;;;;;9.25;94.69;99809.56;4999054;28;20029;-86
2022/09/27 07:43:11;;;;;;;5.75;2.55;;;;;;;9.30;94.94;99807.78;5016229;28;20018;-86
2022/09/27 07:45:36;;;;;;;3.90;2.40;;;;;;;9.31;95.15;99814.81;4999096;28;20033;-86
2022/09/27 07:48:15;;;;;;;3.80;2.30;;;;;;;9.35;95.01;99802.50;4998253;28;20033;-86
2022/09/27 07:50:41;;;;;;;4.88;2.50;;;;;;;9.26;95.12;99791.09;5015949;28;20133;-86
2022/09/27 07:53:06;;;;;;;4.43;2.40;;;;;;;9.38;95.15;99816.56;4982121;28;20069;-86
2022/09/27 07:55:32;;;;;;;6.10;2.50;;;;;;;9.39;94.94;99813.03;4998914;28;20088;-86
2022/09/27 07:58:03;;;;;;;6.78;2.47;;;;;;;9.43;95.14;99813.91;4998281;28;20029;-86
2022/09/27 08:00:28;;;;;;;4.07;2.58;;;;;;;9.44;94.77;99818.31;4998225;28;20022;-86
2022/09/27 08:02:54;;;;;;;4.72;2.75;;;;;;;9.43;94.76;99825.34;4998705;28;20037;-86
2022/09/27 08:05:19;;;;;;;7.18;2.70;;;;;;;9.40;94.86;99814.78;4998535;28;20026;-87
2022/09/27 08:07:44;;;;;;;6.80;3.00;;;;;;;9.49;94.80;99832.34;4999901;28;20045;-86
2022/09/27 08:10:10;;;;;;;4.05;2.63;;;;;;;9.48;94.95;99827.97;4998525;28;20109;-86
2022/09/27 08:12:35;;;;;;;7.63;2.90;;;;;;;9.51;95.03;99830.63;5016220;28;20026;-86
2022/09/27 08:15:03;;;;;;;4.55;2.95;;;;;;;9.54;94.78;99834.09;4997827;28;20033;-86
2022/09/27 08:17:29;;;;;;;7.75;3.22;;;;;;;9.60;94.67;99840.28;5015567;28;20030;-86
2022/09/27 08:19:55;;;;;;;4.93;3.25;;;;;;;9.61;94.41;99826.19;4997649;28;20052;-86
2022/09/27 08:22:20;;;;;;;8.88;3.28;;;;;;;9.57;94.67;99817.41;4997699;28;20454;-86
2022/09/27 08:24:47;;;;;;;6.38;3.42;;;;;;;9.65;95.09;99827.94;4997810;28;20129;-86
2022/09/27 08:27:12;;;;;;;7.40;3.50;;;;;;;9.65;95.00;99828.81;5015202;28;20102;-86
2022/09/27 08:29:40;;;;;;;7.90;4.07;;;;;;;9.64;95.02;99816.53;5015287;28;20160;-87
2022/09/27 08:32:10;;;;;;;6.38;3.63;;;;;;;9.69;94.70;99821.78;5015609;28;20025;-87
2022/09/27 08:34:35;;;;;;;5.20;3.85;;;;;;;9.70;95.01;99829.69;5015090;28;20079;-86
2022/09/27 08:37:01;;;;;;;5.78;4.13;;;;;;;9.68;95.44;99830.59;4997418;28;20025;-86
2022/09/27 08:39:26;;;;;;;8.05;4.25;;;;;;;9.69;95.83;99829.69;5014692;28;20469;-86
2022/09/27 08:42:10;;;;;;;8.35;4.95;;;;;;;9.70;95.30;99823.53;4997151;28;20057;-86
2022/09/27 08:44:45;;;;;;;8.23;4.88;;;;;;;9.76;95.91;99826.16;5014981;28;20030;-86
2022/09/27 08:47:21;;;;;;;10.18;5.35;;;;;;;9.75;95.75;99827.03;4997249;28;20121;-86
2022/09/27 08:50:05;;;;;;;6.97;5.13;;;;;;;9.79;95.84;99826.16;4997647;28;20029;-86
2022/09/27 08:52:36;;;;;;;10.05;5.55;;;;;;;9.77;95.58;99820.00;5014568;28;20018;-86
2022/09/27 08:55:13;;;;;;;8.32;5.72;;;;;;;9.76;95.43;99826.16;5015008;28;20453;-86
2022/09/27 08:57:39;;;;;;;8.35;5.97;;;;;;;9.78;95.22;99835.81;5014700;28;20113;-86
2022/09/27 09:00:10;;;;;;;8.18;6.03;;;;;;;9.83;95.30;99846.38;4996637;28;20176;-87
2022/09/27 09:02:36;;;;;;;9.80;6.17;;;;;;;9.75;95.58;99822.63;5015864;28;20056;-86
2022/09/27 09:05:08;;;;;;;9.38;6.63;;;;;;;9.85;95.52;99836.72;4996916;28;20269;-86
2022/09/27 09:08:01;;;;;;;10.00;7.20;;;;;;;9.94;95.53;99841.94;5014648;28;20049;-86
2022/09/27 09:13:46;;;;;;;7.40;6.30;;;;;;;10.06;94.39;99863.91;5014575;28;20064;-86
2022/09/27 09:16:35;;;;;;;9.70;6.30;;;;;;;10.08;94.83;99868.28;5014204;28;20065;-86
2022/09/27 09:19:10;;;;;;;9.30;6.55;;;;;;;10.10;94.42;99858.59;4996467;28;20030;-86
2022/09/27 09:21:46;;;;;;;8.25;6.65;;;;;;;10.12;94.76;99861.25;5014284;28;20026;-86
2022/09/27 09:24:17;;;;;;;9.93;7.00;;;;;;;10.13;94.86;99871.78;5014862;28;20022;-86
2022/09/27 09:26:45;;;;;;;10.75;7.65;;;;;;;10.11;95.20;99870.94;5014218;28;20022;-86
2022/09/27 09:29:49;;;;;;;10.15;6.95;;;;;;;10.15;95.00;99866.50;5014086;28;20046;-86
2022/09/27 09:32:45;;;;;;;11.50;7.35;;;;;;;10.11;94.10;99870.94;5014451;28;20026;-86
2022/09/27 09:35:31;;;;;;;10.50;7.05;;;;;;;10.12;94.88;99867.41;4996542;28;20029;-86
2022/09/27 09:38:00;;;;;;;9.57;6.40;;;;;;;10.08;94.02;99867.41;4995541;28;20084;-86
2022/09/27 09:40:38;;;;;;;9.38;7.40;;;;;;;10.04;94.26;99853.34;4996312;28;20369;-86
2022/09/27 09:43:12;;;;;;;8.35;6.47;;;;;;;10.04;93.77;99843.66;4996750;28;20331;-86
2022/09/27 09:45:53;;;;;;;9.30;7.28;;;;;;;10.11;93.80;99848.94;5013757;28;20069;-86
2022/09/27 09:48:24;;;;;;;13.30;8.00;;;;;;;10.13;93.69;99848.03;5014042;28;20022;-86
2022/09/27 09:50:55;;;;;;;12.73;7.88;;;;;;;10.15;93.85;99848.03;5014312;28;20037;-86
2022/09/27 09:53:28;;;;;;;13.45;8.27;;;;;;;10.17;94.04;99846.28;5014029;28;20041;-87
2022/09/27 09:56:06;;;;;;;13.15;8.77;;;;;;;10.17;94.21;99852.44;5013987;28;20028;-87
2022/09/27 09:58:50;;;;;;;11.90;8.75;;;;;;;10.09;94.07;99843.66;5013989;28;20057;-86
2022/09/27 10:01:32;;;;;;;10.50;8.52;;;;;;;10.13;94.16;99850.69;4999997;28;20030;-86
2022/09/27 10:03:57;;;;;;;10.95;7.05;;;;;;;10.16;93.81;99850.69;5017980;28;20018;-86
2022/09/27 10:06:25;;;;;;;7.97;5.82;;;;;;;10.21;93.16;99864.72;5017585;28;20022;-86
2022/09/27 10:08:53;;;;;;;13.23;6.72;;;;;;;10.17;93.52;99854.19;5017567;28;20065;-86
2022/09/27 10:11:25;;;;;;;8.15;5.80;;;;;;;10.19;94.25;99839.22;5000973;28;20022;-85
2022/09/27 10:13:52;;;;;;;8.60;5.55;;;;;;;10.18;93.70;99848.03;5019222;28;20104;-86
2022/09/27 10:16:20;;;;;;;7.55;4.65;;;;;;;10.17;93.47;99856.84;5000300;28;20041;-86
2022/09/27 10:18:47;;;;;;;7.20;3.83;;;;;;;10.13;93.12;99858.59;5017925;28;20485;-86
2022/09/27 10:21:19;;;;;;;5.95;3.75;;;;;;;10.14;92.81;99854.19;4983671;28;20466;-86
2022/09/27 10:24:11;;;;;;;5.85;3.42;;;;;;;10.16;92.68;99861.22;5017351;28;20140;-86
2022/09/27 10:26:38;;;;;;;4.70;2.67;;;;;;;10.13;92.00;99857.72;5017809;28;20017;-86
2022/09/27 10:29:19;;;;;;;5.13;2.50;;;;;;;10.11;91.23;99864.78;4999452;28;20045;-86
2022/09/27 10:31:47;;;;;;;4.07;2.40;;;;;;;10.07;91.74;99866.56;5017418;28;20104;-86
2022/09/27 10:34:32;;;;;;;4.22;2.30;;;;;;;10.02;91.31;99869.19;5017598;28;20373;-86
2022/09/27 10:37:20;;;;;;;3.97;2.10;;;;;;;10.07;91.84;99868.31;5017913;28;20026;-86
2022/09/27 10:39:47;;;;;;;5.80;2.10;;;;;;;10.11;91.70;99872.69;5017807;28;20022;-86
2022/09/27 10:42:33;;;;;;;2.92;2.00;;;;;;;10.15;91.92;99863.84;5017750;28;20495;-86
2022/09/27 10:45:23;;;;;;;3.47;1.67;;;;;;;10.20;90.39;99864.75;5017478;28;20036;-87
2022/09/27 10:47:49;;;;;;;2.50;1.50;;;;;;;10.17;90.07;99867.38;4999770;28;20030;-86
2022/09/27 10:50:25;;;;;;;2.97;1.50;;;;;;;10.23;90.94;99870.88;4999635;28;20121;-86
2022/09/27 10:53:03;;;;;;;3.80;1.60;;;;;;;10.28;89.65;99873.56;5017365;28;20084;-86
2022/09/27 10:55:32;;;;;;;2.25;1.50;;;;;;;10.30;89.63;99868.25;5017001;28;20029;-86
2022/09/27 10:57:58;;;;;;;1.27;1.20;;;;;;;10.33;88.87;99878.81;5016892;28;20022;-86
2022/09/27 11:00:35;;;;;;;1.95;1.48;;;;;;;10.38;89.28;99874.38;5016788;28;20025;-85
2022/09/27 11:03:14;;;;;;;1.98;1.30;;;;;;;10.39;89.00;99869.09;5016704;28;20049;-86
2022/09/27 11:05:39;;;;;;;2.58;1.30;;;;;;;10.38;87.70;99877.03;5017117;28;20079;-86
2022/09/27 11:08:17;;;;;;;3.22;1.60;;;;;;;10.36;88.52;99866.44;5017049;28;20034;-86
2022/09/27 11:10:42;;;;;;;4.93;1.63;;;;;;;10.29;87.97;99862.09;5016263;28;20076;-86
2022/09/27 11:13:14;;;;;;;1.67;1.13;;;;;;;10.28;87.49;99866.50;4999370;28;20060;-86
2022/09/27 11:16:07;;;;;;;2.20;1.43;;;;;;;10.17;87.50;99868.25;5016611;28;20033;-86
2022/09/27 11:19:10;;;;;;;1.85;1.10;;;;;;;10.16;86.16;99870.91;5016588;28;20260;-85
2022/09/27 11:22:16;;;;;;;3.00;1.10;;;;;;;10.21;87.54;99866.50;5016511;28;20052;-85
2022/09/27 11:24:42;;;;;;;1.13;1.08;;;;;;;10.30;87.35;99865.63;4986904;28;20037;-85
2022/09/27 11:27:26;;;;;;;2.33;1.10;;;;;;;10.39;87.39;99860.28;5016324;28;20394;-86
2022/09/27 11:30:02;;;;;;;4.82;1.45;;;;;;;10.42;87.14;99861.16;4998587;28;20072;-86
2022/09/27 11:32:46;;;;;;;1.65;1.30;;;;;;;10.55;88.04;99859.34;5016373;28;20100;-86
2022/09/27 11:35:46;;;;;;;1.45;1.27;;;;;;;10.63;87.70;99849.63;5015898;28;20351;-86
2022/09/27 11:38:26;;;;;;;2.67;1.20;;;;;;;10.81;87.94;99853.91;5016809;28;20040;-86
2022/09/27 11:41:20;;;;;;;1.23;1.13;;;;;;;10.93;86.28;99852.97;5016289;28;20510;-86
2022/09/27 11:43:54;;;;;;;3.83;1.70;;;;;;;11.06;87.34;99846.69;4998772;28;20116;-86
2022/09/27 11:46:30;;;;;;;2.90;1.60;;;;;;;11.14;86.65;99825.50;5016336;28;20116;-86
2022/09/27 11:49:14;;;;;;;2.63;1.50;;;;;;;11.37;86.03;99836.75;4998454;28;20036;-86
2022/09/27 11:52:01;;;;;;;1.85;1.25;;;;;;;11.48;86.00;99831.38;4998891;28;20438;-86
2022/09/27 11:54:26;;;;;;;1.80;1.25;;;;;;;11.66;85.78;99847.06;5016173;28;20022;-86
2022/09/27 11:57:17;;;;;;;2.78;1.45;;;;;;;11.87;86.75;99838.06;4998789;28;20072;-86
2022/09/27 12:00:11;;;;;;;1.60;1.00;;;;;;;11.96;84.21;99832.66;5015738;28;20038;-86
2022/09/27 12:03:03;;;;;;;1.15;0.88;;;;;;;12.08;82.20;99833.44;5015724;28;20080;-86
2022/09/27 12:05:40;;;;;;;2.78;1.20;;;;;;;12.16;82.06;99836.84;4970728;28;20026;-86